createdAt,value
2023-01-30T00:00:27.930Z,88.96
2023-01-30T00:03:30.193Z,89.12
2023-01-30T00:06:32.359Z,89.56
2023-01-30T00:09:34.568Z,89.52
2023-01-30T00:12:36.727Z,88.77
2023-01-30T00:15:38.672Z,88.67
2023-01-30T00:18:43.716Z,89.57
2023-01-30T00:21:45.629Z,89.00
2023-01-30T00:24:50.275Z,89.02
2023-01-30T00:27:54.731Z,89.28
2023-01-30T00:30:58.271Z,89.10
2023-01-30T00:34:00.301Z,88.89
2023-01-30T00:37:08.425Z,89.52
2023-01-30T00:40:11.947Z,89.22
2023-01-30T00:43:37.855Z,89.34
2023-01-30T00:46:58.387Z,89.64
2023-01-30T00:50:01.841Z,89.06
2023-01-30T00:53:04.089Z,89.68
2023-01-30T00:56:08.883Z,89.16
2023-01-30T00:59:12.476Z,89.25
2023-01-30T01:02:14.441Z,89.32
2023-01-30T01:05:16.785Z,89.28
2023-01-30T01:08:20.526Z,89.37
2023-01-30T01:11:25.157Z,89.31
2023-01-30T01:14:27.008Z,89.45
2023-01-30T01:17:29.295Z,89.43
2023-01-30T01:20:31.281Z,89.09
2023-01-30T01:23:33.740Z,89.37
2023-01-30T01:26:36.520Z,89.50
2023-01-30T01:29:42.321Z,89.45
2023-01-30T01:32:47.415Z,88.94
2023-01-30T01:35:49.430Z,88.82
2023-01-30T01:38:51.379Z,89.08
2023-01-30T01:41:53.413Z,88.85
2023-01-30T01:45:13.908Z,88.79
2023-01-30T01:48:26.939Z,88.72
2023-01-30T01:51:44.779Z,89.01
2023-01-30T01:54:55.450Z,88.68
2023-01-30T01:58:12.057Z,88.27
2023-01-30T02:01:16.094Z,88.33
2023-01-30T02:04:38.129Z,88.21
2023-01-30T02:07:59.560Z,88.34
2023-01-30T02:11:37.050Z,87.91
2023-01-30T02:14:43.226Z,88.05
2023-01-30T02:17:48.492Z,88.41
2023-01-30T02:21:05.766Z,88.21
2023-01-30T02:24:07.722Z,88.53
2023-01-30T02:27:23.941Z,87.98
2023-01-30T02:30:42.982Z,88.10
2023-01-30T02:34:13.053Z,87.92
2023-01-30T02:37:27.214Z,87.98
2023-01-30T02:40:36.203Z,88.05
2023-01-30T02:44:03.093Z,87.47
2023-01-30T02:47:11.763Z,87.73
2023-01-30T02:50:28.804Z,87.52
2023-01-30T02:53:34.777Z,87.76
2023-01-30T02:56:57.902Z,87.75
2023-01-30T03:00:06.248Z,87.74
2023-01-30T03:03:45.353Z,87.81
2023-01-30T03:07:06.509Z,88.19
2023-01-30T03:10:39.594Z,87.91
2023-01-30T03:13:56.274Z,87.98
2023-01-30T03:17:00.613Z,87.99
2023-01-30T03:20:03.927Z,87.76
2023-01-30T03:23:06.335Z,87.69
2023-01-30T03:26:15.687Z,87.96
2023-01-30T03:29:25.693Z,88.01
2023-01-30T03:32:28.358Z,88.11
2023-01-30T03:35:31.612Z,88.39
2023-01-30T03:38:36.074Z,87.87
2023-01-30T03:41:41.433Z,87.55
2023-01-30T03:44:46.603Z,88.14
2023-01-30T03:47:51.394Z,87.83
2023-01-30T03:50:56.464Z,87.69
2023-01-30T03:53:59.979Z,88.16
2023-01-30T03:57:02.104Z,87.98
2023-01-30T04:00:05.947Z,87.78
2023-01-30T04:03:18.067Z,87.43
2023-01-30T04:06:27.265Z,88.12
2023-01-30T04:09:29.849Z,87.51
2023-01-30T04:12:32.121Z,87.35
2023-01-30T04:15:35.641Z,87.66
2023-01-30T04:19:06.496Z,87.68
2023-01-30T04:22:08.838Z,87.89
2023-01-30T04:25:11.516Z,87.30
2023-01-30T04:28:14.618Z,87.20
2023-01-30T04:31:18.932Z,87.13
2023-01-30T04:34:38.860Z,87.53
2023-01-30T04:37:41.653Z,87.02
2023-01-30T04:40:54.938Z,87.11
2023-01-30T04:43:57.944Z,87.17
2023-01-30T04:47:07.464Z,87.26
2023-01-30T04:50:10.742Z,87.03
2023-01-30T04:53:13.651Z,87.39
2023-01-30T04:56:15.780Z,87.65
2023-01-30T04:59:18.619Z,87.31
2023-01-30T05:02:24.028Z,87.17
2023-01-30T05:05:29.520Z,87.50
2023-01-30T05:08:32.316Z,87.44
2023-01-30T05:11:44.286Z,87.12
2023-01-30T05:14:50.355Z,87.54
2023-01-30T05:17:54.877Z,87.48
2023-01-30T05:21:06.062Z,87.63
2023-01-30T05:24:09.316Z,86.94
2023-01-30T05:27:11.568Z,87.26
2023-01-30T05:30:13.971Z,87.60
2023-01-30T05:33:16.108Z,87.42
2023-01-30T05:36:20.508Z,87.22
2023-01-30T05:39:24.677Z,87.33
2023-01-30T05:42:37.787Z,87.24
2023-01-30T05:45:41.651Z,87.51
2023-01-30T05:48:44.925Z,87.34
2023-01-30T05:51:47.251Z,87.68
2023-01-30T05:54:51.422Z,87.26
2023-01-30T05:57:53.957Z,87.55
2023-01-30T06:01:01.768Z,86.88
2023-01-30T06:04:03.921Z,87.17
2023-01-30T06:07:06.194Z,86.60
2023-01-30T06:10:09.215Z,87.06
2023-01-30T06:13:14.250Z,86.77
2023-01-30T06:16:23.889Z,86.55
2023-01-30T06:23:49.854Z,86.48
2023-01-30T06:26:57.823Z,85.94
2023-01-30T06:30:13.324Z,85.48
2023-01-30T06:33:40.474Z,85.80
2023-01-30T06:37:02.715Z,85.74
2023-01-30T06:40:11.230Z,85.24
2023-01-30T06:43:44.859Z,85.55
2023-01-30T06:46:51.312Z,85.01
2023-01-30T06:50:07.603Z,84.61
2023-01-30T06:53:24.641Z,84.52
2023-01-30T06:56:37.093Z,84.56
2023-01-30T06:59:55.751Z,84.83
2023-01-30T07:03:12.561Z,84.51
2023-01-30T07:06:26.610Z,84.83
2023-01-30T07:09:35.430Z,84.53
2023-01-30T07:12:47.056Z,84.56
2023-01-30T07:16:05.441Z,84.22
2023-01-30T07:19:07.907Z,84.34
2023-01-30T07:22:09.900Z,83.74
2023-01-30T07:25:27.418Z,83.30
2023-01-30T07:28:40.341Z,83.93
2023-01-30T07:31:45.621Z,83.55
2023-01-30T07:34:55.983Z,83.42
2023-01-30T07:38:11.872Z,83.06
2023-01-30T07:41:20.999Z,83.41
2023-01-30T07:44:34.635Z,82.92
2023-01-30T07:47:36.873Z,82.72
2023-01-30T07:50:39.652Z,83.03
2023-01-30T07:53:41.523Z,82.68
2023-01-30T07:56:46.132Z,82.69
2023-01-30T07:59:57.051Z,82.73
2023-01-30T08:02:59.422Z,82.66
2023-01-30T08:06:04.964Z,83.10
2023-01-30T08:09:07.960Z,82.83
2023-01-30T08:12:09.712Z,82.35
2023-01-30T08:15:12.018Z,81.57
2023-01-30T08:18:14.261Z,81.50
2023-01-30T08:21:16.496Z,81.13
2023-01-30T08:24:18.505Z,81.54
2023-01-30T08:27:20.988Z,80.75
2023-01-30T08:30:23.528Z,80.24
2023-01-30T08:33:26.062Z,80.95
2023-01-30T08:36:28.251Z,80.65
2023-01-30T08:39:31.868Z,80.45
2023-01-30T08:42:35.614Z,80.38
2023-01-30T08:45:37.496Z,80.30
2023-01-30T08:48:49.937Z,79.98
2023-01-30T08:52:18.092Z,80.33
2023-01-30T08:55:25.186Z,79.71
2023-01-30T08:58:34.461Z,79.42
2023-01-30T09:01:51.242Z,78.18
2023-01-30T09:05:06.716Z,78.48
2023-01-30T09:08:25.904Z,78.26
2023-01-30T09:11:47.802Z,77.85
2023-01-30T09:14:55.750Z,77.21
2023-01-30T09:18:10.112Z,77.71
2023-01-30T09:21:18.013Z,78.09
2023-01-30T09:24:39.097Z,77.29
2023-01-30T09:27:53.063Z,77.57
2023-01-30T09:31:10.507Z,78.18
2023-01-30T09:34:17.274Z,77.08
2023-01-30T09:37:44.358Z,77.11
2023-01-30T09:41:19.039Z,78.12
2023-01-30T09:44:48.381Z,77.97
2023-01-30T09:48:33.312Z,78.04
2023-01-30T09:52:41.789Z,78.12
2023-01-30T09:55:51.791Z,78.14
2023-01-30T09:59:25.822Z,77.54
2023-01-30T10:02:45.900Z,77.88
2023-01-30T10:06:02.051Z,77.55
2023-01-30T10:09:34.432Z,78.31
2023-01-30T10:13:08.212Z,78.27
2023-01-30T10:16:29.321Z,78.68
2023-01-30T10:19:52.501Z,78.35
2023-01-30T10:23:16.051Z,78.46
2023-01-30T10:26:25.851Z,78.46
2023-01-30T10:29:40.651Z,78.34
2023-01-30T10:33:12.360Z,78.32
2023-01-30T10:36:47.523Z,77.95
2023-01-30T10:40:28.845Z,78.49
2023-01-30T10:44:24.915Z,78.14
2023-01-30T10:48:42.492Z,76.83
2023-01-30T10:53:04.685Z,77.10
2023-01-30T10:57:15.963Z,77.30
2023-01-30T11:08:45.176Z,76.38
2023-01-30T11:20:30.476Z,74.67
2023-01-30T11:24:39.255Z,74.96
2023-01-30T11:28:28.367Z,74.91
2023-01-30T11:32:15.116Z,75.30
2023-01-30T11:43:41.489Z,75.59
2023-01-30T11:46:57.813Z,76.05
2023-01-30T11:50:35.230Z,76.02
2023-01-30T11:54:01.630Z,75.56
2023-01-30T11:57:06.251Z,75.56
2023-01-30T12:00:20.209Z,76.15
2023-01-30T12:03:25.731Z,76.40
2023-01-30T12:06:35.409Z,76.13
2023-01-30T12:09:40.762Z,74.98
2023-01-30T12:13:46.249Z,75.44
2023-01-30T12:17:07.734Z,75.90
2023-01-30T12:20:40.838Z,76.06
2023-01-30T12:23:52.741Z,75.96
2023-01-30T12:27:19.565Z,76.54
2023-01-30T12:30:30.487Z,76.65
2023-01-30T12:33:34.965Z,76.57
2023-01-30T12:36:51.576Z,77.47
2023-01-30T12:40:49.689Z,77.28
2023-01-30T12:44:40.676Z,77.89
2023-01-30T12:48:10.486Z,77.57
2023-01-30T12:51:52.540Z,77.92
2023-01-30T12:56:21.450Z,78.17
2023-01-30T13:00:40.100Z,78.07
2023-01-30T13:04:56.252Z,78.06
2023-01-30T13:08:41.273Z,78.01
2023-01-30T13:16:47.249Z,78.14
2023-01-30T13:20:34.304Z,77.38
2023-01-30T13:24:11.152Z,78.49
2023-01-30T13:27:45.219Z,78.36
2023-01-30T13:31:55.938Z,77.83
2023-01-30T13:35:20.433Z,78.61
2023-01-30T13:39:05.991Z,78.16
2023-01-30T13:42:56.950Z,78.27
2023-01-30T13:46:03.333Z,79.78
2023-01-30T13:49:30.495Z,79.45
2023-01-30T13:52:44.482Z,80.32
2023-01-30T13:55:57.133Z,79.57
2023-01-30T13:59:10.103Z,81.41
2023-01-30T14:02:23.576Z,80.69
2023-01-30T14:06:01.063Z,80.23
2023-01-30T14:09:19.912Z,80.82
2023-01-30T14:12:28.552Z,80.25
2023-01-30T14:15:31.871Z,80.44
2023-01-30T14:18:36.250Z,80.84
2023-01-30T14:21:39.810Z,80.40
2023-01-30T14:24:41.527Z,80.71
2023-01-30T14:27:43.430Z,81.03
2023-01-30T14:36:20.798Z,82.46
2023-01-30T14:52:56.445Z,84.83
2023-01-30T14:56:04.178Z,85.65
2023-01-30T15:04:30.842Z,86.45
2023-01-30T15:12:43.237Z,87.37
2023-01-30T15:16:48.657Z,88.15
2023-01-30T15:43:43.462Z,94.17
2023-01-30T15:48:16.945Z,95.37
2023-01-30T15:53:08.608Z,96.47
2023-01-30T15:56:17.741Z,96.91
2023-01-30T15:59:36.503Z,96.54
2023-01-30T16:02:38.349Z,96.98
2023-01-30T16:05:51.197Z,96.14
2023-01-30T16:09:00.940Z,96.58
2023-01-30T16:12:02.895Z,96.74
2023-01-30T16:15:18.855Z,96.62
2023-01-30T16:18:21.614Z,95.83
2023-01-30T16:21:33.471Z,95.46
2023-01-30T16:24:37.396Z,95.79
2023-01-30T16:27:41.078Z,95.22
2023-01-30T16:30:43.190Z,95.34
2023-01-30T16:33:52.541Z,95.75
2023-01-30T16:36:55.093Z,96.10
2023-01-30T16:40:13.217Z,96.65
2023-01-30T16:43:22.901Z,96.85
2023-01-30T16:46:51.876Z,97.49
2023-01-30T16:49:56.294Z,97.60
2023-01-30T16:53:03.816Z,97.70
2023-01-30T16:56:28.149Z,98.54
2023-01-30T16:59:44.709Z,98.94
2023-01-30T17:03:00.386Z,98.35
2023-01-30T17:06:37.704Z,98.76
2023-01-30T17:09:55.466Z,98.91
2023-01-30T17:13:07.211Z,98.42
2023-01-30T17:16:23.712Z,99.04
2023-01-30T17:19:25.505Z,98.46
2023-01-30T17:22:27.439Z,98.64
2023-01-30T17:26:05.065Z,97.85
2023-01-30T17:33:27.227Z,98.12
2023-01-30T17:42:27.065Z,97.10
2023-01-30T17:47:16.937Z,96.69
2023-01-30T17:54:56.610Z,95.98
2023-01-30T17:58:33.212Z,95.05
2023-01-30T18:09:15.818Z,94.96
2023-01-30T18:12:17.486Z,94.46
2023-01-30T18:15:19.492Z,94.43
2023-01-30T18:18:21.700Z,94.54
2023-01-30T18:21:23.763Z,94.42
2023-01-30T18:24:25.872Z,93.96
2023-01-30T18:27:27.984Z,94.29
2023-01-30T18:55:14.487Z,92.91
2023-01-30T18:58:16.484Z,92.86
2023-01-30T19:01:23.179Z,92.81
2023-01-30T19:04:25.186Z,92.19
2023-01-30T19:07:27.281Z,92.02
2023-01-30T19:10:30.966Z,92.42
2023-01-30T19:13:32.948Z,92.01
2023-01-30T19:16:36.938Z,92.41
2023-01-30T19:19:38.811Z,91.48
2023-01-30T19:22:40.963Z,91.90
2023-01-30T19:26:11.490Z,91.92
2023-01-30T19:29:50.697Z,91.20
2023-01-30T19:41:25.976Z,90.47
2023-01-30T19:44:28.002Z,90.71
2023-01-30T19:47:33.498Z,91.01
2023-01-30T19:50:38.704Z,90.64
2023-01-30T19:53:42.854Z,90.90
2023-01-30T20:01:12.382Z,90.41
2023-01-30T20:04:14.752Z,90.53
2023-01-30T20:22:13.055Z,89.87
2023-01-30T20:25:14.921Z,89.56
2023-01-30T20:28:16.530Z,90.12
2023-01-30T20:31:21.803Z,89.61
2023-01-30T20:34:23.432Z,89.25
2023-01-30T20:37:25.854Z,89.90
2023-01-30T20:40:27.871Z,88.95
2023-01-30T20:43:33.646Z,89.56
2023-01-30T20:46:43.854Z,89.26
2023-01-30T20:49:45.455Z,90.08
2023-01-30T20:52:48.911Z,89.60
2023-01-30T20:55:50.463Z,89.77
2023-01-30T20:58:52.391Z,90.03
2023-01-30T21:01:54.422Z,89.83
2023-01-30T21:04:56.046Z,89.70
2023-01-30T21:07:57.558Z,89.31
2023-01-30T21:11:06.941Z,89.32
2023-01-30T21:14:08.498Z,89.80
2023-01-30T21:17:10.004Z,89.72
2023-01-30T21:20:11.709Z,89.31
2023-01-30T21:23:13.234Z,90.06
2023-01-30T21:26:16.934Z,89.59
2023-01-30T21:29:21.825Z,89.58
2023-01-30T21:32:23.474Z,89.80
2023-01-30T21:35:25.107Z,89.92
2023-01-30T21:38:46.732Z,89.31
2023-01-30T21:41:51.129Z,89.70
2023-01-30T21:44:52.683Z,89.82
2023-01-30T21:47:54.411Z,89.57
2023-01-30T21:50:56.375Z,89.42
2023-01-30T21:54:00.149Z,89.62
2023-01-30T21:57:02.430Z,89.27
2023-01-30T22:00:04.593Z,89.43
2023-01-30T22:03:06.848Z,90.06
2023-01-30T22:06:10.317Z,89.42
2023-01-30T22:09:14.571Z,89.38
2023-01-30T22:12:16.279Z,89.46
2023-01-30T22:15:21.732Z,90.03
2023-01-30T22:18:23.732Z,88.98
2023-01-30T22:21:27.751Z,89.54
2023-01-30T22:24:29.323Z,89.03
2023-01-30T22:27:30.857Z,89.45
2023-01-30T22:30:32.402Z,89.03
2023-01-30T22:33:34.719Z,89.09
2023-01-30T22:36:37.177Z,89.11
2023-01-30T22:39:40.291Z,89.19
2023-01-30T22:42:46.747Z,88.55
2023-01-30T22:45:48.299Z,88.69
2023-01-30T22:48:49.812Z,88.24
2023-01-30T22:51:51.345Z,88.48
2023-01-30T22:54:52.888Z,88.32
2023-01-30T22:57:54.425Z,88.48
2023-01-30T23:01:02.978Z,88.49
2023-01-30T23:04:13.657Z,88.72
2023-01-30T23:07:17.733Z,88.96
2023-01-30T23:10:19.401Z,88.69
2023-01-30T23:13:21.001Z,87.91
2023-01-30T23:16:26.051Z,87.78
2023-01-30T23:19:27.641Z,88.60
2023-01-30T23:22:29.235Z,88.24
2023-01-30T23:25:30.766Z,88.32
2023-01-30T23:28:32.411Z,88.91
2023-01-30T23:31:35.485Z,88.41
2023-01-30T23:34:37.606Z,88.28
2023-01-30T23:37:57.653Z,88.80
2023-01-30T23:41:13.843Z,88.66
2023-01-30T23:44:15.373Z,88.75
2023-01-30T23:47:16.966Z,88.80
2023-01-30T23:50:18.543Z,88.71
2023-01-30T23:53:20.115Z,88.15
2023-01-30T23:56:23.657Z,88.22
2023-01-30T23:59:25.203Z,88.96
